• Join FlightAware (Why Join?)
  • Login
  • US Flag 
04:41PM EDT


 

Airport Tracker/Info


-or-


 

Live Flight TrackerFlight Track Log ✈ UAL4457 ✈ 13-Sep-2013 ✈ KLEX - KIAH

Flight Track Log - Related Links

Times and Time Zones

All times are in EDT time to prevent confusion due to time zone crossing. See the UAL4457 flight status page for this flight to view local times or setup timezone preferences in your user account.

Time Position Orientation Groundspeed Altitude Reporting Facility
EDT Latitude Longitude Course Direction KTS MPH feet Rate Location/Type
05:39PM 38.1017 -84.6317 305° West 211 243 6,200  Level Indianapolis Center
05:40PM 38.0753 -84.7122 247° West 246 283 8,000 2,040 Climbing Indianapolis Center
05:41PM 38.0381 -84.8014 242° Southwest 281 323 10,500 1,500 Climbing Indianapolis Center
05:42PM 37.9931 -84.9189 244° Southwest 310 357 11,200 1,020 Climbing Indianapolis Center
05:43PM 37.9411 -85.0378 241° Southwest 358 412 12,700 1,380 Climbing Indianapolis Center
05:44PM 37.6168 -85.2599 231° Southwest  Level Estimated
05:44PM 37.8931 -85.1542 242° Southwest 371 427 14,100  Level Indianapolis Center
05:45PM 37.8419 -85.2794 243° Southwest 381 438 15,300 1,080 Climbing Indianapolis Center
05:47PM 37.7953 -85.3931 243° Southwest 381 438 16,400 1,260 Climbing Indianapolis Center
05:48PM 37.7378 -85.5336 243° Southwest 385 443 18,000 1,320 Climbing Indianapolis Center
05:49PM 37.6919 -85.6400 241° Southwest 384 442 19,200 1,380 Climbing Indianapolis Center
05:50PM 37.6433 -85.7597 243° Southwest 382 440 20,900 1,800 Climbing Indianapolis Center
05:51PM 37.5836 -85.8986 242° Southwest 374 430 23,000 1,560 Climbing Indianapolis Center
05:52PM 37.5372 -86.0122 243° Southwest 374 430 24,200 1,380 Climbing Indianapolis Center
05:53PM 37.4872 -86.1300 242° Southwest 379 436 25,900 1,620 Climbing Indianapolis Center
05:54PM 37.4381 -86.2444 242° Southwest 372 428 27,600 1,740 Climbing Indianapolis Center
05:55PM 37.3894 -86.3594 242° Southwest 371 427 29,500 1,800 Climbing Indianapolis Center
05:56PM 37.3417 -86.4717 242° Southwest 365 420 31,400 1,860 Climbing Indianapolis Center
05:57PM 37.2864 -86.5997 242° Southwest 358 412 33,400 1,200 Climbing Indianapolis Center
05:58PM 37.2372 -86.7103 241° Southwest 358 412 34,000 300 Climbing Indianapolis Center
05:59PM 37.1550 -86.8128 225° Southwest 403 464 34,100 480 Climbing Indianapolis Center
06:00PM 37.0878 -86.9011 226° Southwest 415 478 35,000 960 Climbing Memphis Center
06:01PM 37.0011 -87.0061 224° Southwest 434 499 35,900 480 Climbing Memphis Center
06:02PM 36.9083 -87.1189 224° Southwest 434 499 36,000  Climbing Memphis Center
06:03PM 36.8194 -87.2314 225° Southwest 441 507 36,000  Level Memphis Center
06:04PM 36.7306 -87.3383 224° Southwest 447 514 36,000  Level Memphis Center
06:05PM 36.6456 -87.4450 225° Southwest 447 514 36,000  Level Memphis Center
06:06PM 36.5561 -87.5514 224° Southwest 447 514 36,000  Level Memphis Center
06:07PM 36.4669 -87.6553 223° Southwest 447 514 36,000  Level Memphis Center
06:08PM 36.3817 -87.7611 225° Southwest 447 514 36,000  Level Memphis Center
06:09PM 36.2942 -87.8669 224° Southwest 447 514 36,000  Level Memphis Center
06:10PM 36.2086 -87.9700 224° Southwest 442 509 36,000  Level Memphis Center
06:11PM 36.1189 -88.0753 223° Southwest 442 509 36,000  Level Memphis Center
06:12PM 36.0308 -88.1753 223° Southwest 447 514 36,000  Level Memphis Center
06:13PM 35.9450 -88.2775 224° Southwest 440 506 36,000  Level Memphis Center
06:14PM 35.8550 -88.3822 223° Southwest 440 506 36,000  Level Memphis Center
06:15PM 35.7669 -88.4867 224° Southwest 440 506 36,000  Level Memphis Center
06:16PM 35.6789 -88.5883 223° Southwest 440 506 36,000  Level Memphis Center
06:17PM 35.5906 -88.6925 224° Southwest 440 506 36,000  Level Memphis Center
06:18PM 35.5022 -88.7961 224° Southwest 440 506 36,000  Level Memphis Center
06:19PM 35.4181 -88.8972 224° Southwest 434 499 36,000  Level Memphis Center
06:20PM 35.3294 -88.9981 223° Southwest 434 499 36,000  Level Memphis Center
06:21PM 35.2431 -89.1011 224° Southwest 434 499 36,000  Level Memphis Center
06:22PM 35.1542 -89.2014 223° Southwest 434 499 36,000  Level Memphis Center
06:23PM 35.0653 -89.3017 223° Southwest 439 505 36,000  Level Memphis Center
06:24PM 34.9869 -89.3914 223° Southwest 439 505 36,000  Level Memphis Center
06:25PM 34.8958 -89.4936 223° Southwest 439 505 36,000  Level Memphis Center
06:26PM 34.8047 -89.5883 220° Southwest 439 505 36,000  Level Memphis Center
06:27PM 34.6989 -89.7081 223° Southwest 451 519 36,000  Level Memphis Center
06:28PM 34.5972 -89.8347 226° Southwest 447 514 36,000  Level Memphis Center
06:29PM 34.5081 -89.9386 224° Southwest 441 507 36,000  Level Memphis Center
06:30PM 34.4186 -90.0400 223° Southwest 446 513 36,000  Level Memphis Center
06:31PM 34.3292 -90.1408 223° Southwest 451 519 36,000  Level Memphis Center
06:32PM 34.2394 -90.2417 223° Southwest 451 519 36,000  Level Memphis Center
06:33PM 34.1478 -90.3447 223° Southwest 451 519 36,000  Level Memphis Center
06:34PM 34.0578 -90.4425 222° Southwest 444 511 36,000  Level Memphis Center
06:35PM 33.9658 -90.5450 223° Southwest 449 517 36,000  Level Memphis Center
06:36PM 33.8761 -90.6475 223° Southwest 449 517 36,000  Level Memphis Center
06:37PM 33.7944 -90.7347 222° Southwest 441 507 36,000  Level Memphis Center
06:38PM 33.7022 -90.8367 223° Southwest 441 507 36,000  Level Memphis Center
06:39PM 33.5975 -90.9508 222° Southwest 455 524 36,000  Level Memphis Center
06:40PM 33.5072 -91.0497 222° Southwest 455 524 36,000  Level Memphis Center
06:41PM 33.4147 -91.1486 222° Southwest 455 524 36,000  Level Memphis Center
06:42PM 33.3200 -91.2472 221° Southwest 455 524 36,000  Level Memphis Center
06:43PM 33.2275 -91.3506 223° Southwest 455 524 36,000  Level Memphis Center
06:44PM 33.1306 -91.4536 222° Southwest 450 518 36,000  Level Memphis Center
06:46PM 33.0014 -91.5953 223° Southwest 449 517 36,000  Level Fort Worth Center
06:47PM 32.9078 -91.6956 222° Southwest 454 522 36,000  Level Fort Worth Center
06:48PM 32.8122 -91.7956 221° Southwest 459 528 36,000  Level Fort Worth Center
06:49PM 32.7286 -91.8847 222° Southwest 453 521 36,000  Level Fort Worth Center
06:50PM 32.5372 -92.0853 221° Southwest 459 528 36,000  Level Houston Center
06:51PM 32.4428 -92.1844 222° Southwest 457 526 36,000  Level Houston Center
06:53PM 32.3283 -92.3036 221° Southwest 458 527 36,000  Level Houston Center
06:54PM 32.2342 -92.4028 222° Southwest 455 524 36,000  Level Houston Center
06:55PM 32.1403 -92.4989 221° Southwest 450 518 36,000  Level Houston Center
06:56PM 32.0489 -92.5978 223° Southwest 448 516 36,000  Level Houston Center
06:57PM 31.9542 -92.6917 220° Southwest 447 514 36,000  Level Houston Center
06:58PM 31.8600 -92.7850 220° Southwest 445 512 36,000  Level Houston Center
06:59PM 31.7458 -92.8969 220° Southwest 447 514 36,000 -60 Level Houston Center
07:00PM 31.6494 -92.9869 218° Southwest 446 513 35,900  Descending Houston Center
07:01PM 31.5544 -93.0806 220° Southwest 447 514 36,000  Climbing Houston Center
07:02PM 31.4572 -93.1708 218° Southwest 447 514 36,000  Level Houston Center
07:03PM 31.3622 -93.2633 220° Southwest 446 513 36,000 -60 Level Houston Center
07:04PM 31.2669 -93.3578 220° Southwest 448 516 35,900 -540 Descending Houston Center
07:05PM 31.1503 -93.4650 218° Southwest 447 514 34,900 -960 Descending Houston Center
07:06PM 31.0547 -93.5586 220° Southwest 448 516 33,900 -1,020 Descending Houston Center
07:07PM 30.9564 -93.6506 219° Southwest 454 522 32,900 -1,320 Descending Houston Center
07:08PM 30.8606 -93.7411 219° Southwest 448 516 31,200 -2,460 Descending Houston Center
07:09PM 30.7650 -93.8339 220° Southwest 450 518 27,900 -3,600 Descending Houston Center
07:10PM 30.6478 -93.9431 219° Southwest 452 520 23,800 -3,360 Descending Houston Center
07:11PM 30.5575 -94.0272 219° Southwest 426 490 21,000 -2,520 Descending Houston Center
07:12PM 30.4719 -94.1075 219° Southwest 403 464 18,600 -2,520 Descending Houston Center
07:13PM 30.3914 -94.1825 219° Southwest 380 437 15,900 -3,000 Descending Houston Center
07:13PM 30.3633 -94.2069 217° Southwest 372 428 15,000 -3,360 Descending Houston Center
07:14PM 30.3328 -94.2378 221° Southwest 369 425 13,900 -2,400 Descending Houston Center
07:14PM 30.2975 -94.2700 218° Southwest 364 419 13,000 -1,800 Descending Houston Center
07:15PM 30.2614 -94.3222 231° Southwest 354 407 12,100 -1,260 Descending Houston Center
07:15PM 30.2511 -94.3675 255° West 365 420 11,700 -1,260 Descending Houston Center
07:16PM 30.2306 -94.4353 251° West 354 407 10,800 -1,500 Descending Houston Center
07:16PM 30.2203 -94.4756 254° West 356 410 10,200 -840 Descending Houston Center
07:17PM 30.2014 -94.5456 253° West 348 400 10,000 -240 Descending Houston Center
07:17PM 30.1942 -94.5725 253° West 347 399 10,000  Level Houston Center
07:18PM 30.1733 -94.6458 252° West 357 411 10,000  Level Houston Center
07:18PM 30.1586 -94.7025 253° West 352 405 10,000  Level Houston Center
07:19PM 30.1436 -94.7536 251° West 347 399 10,000  Level Houston Center
07:19PM 30.1300 -94.8092 254° West 351 404 10,000  Level Houston Center
07:20PM 30.1158 -94.8586 252° West 351 404 10,000  Level Houston Center
07:20PM 30.1058 -94.9161 259° West 346 398 10,000  Level Houston Center
07:21PM 30.1044 -94.9808 269° West 334 384 10,000 -300 Level Houston Center
07:21PM 30.1064 -95.0206 273° West 332 382 9,700 -1,440 Descending Houston Center
07:22PM 30.1064 -95.0700 270° West 287 330 8,700 -1,860 Descending Houston Center
07:23PM 30.1078 -95.1128 272° West 301 346 7,800 -1,980 Descending Houston Center
07:23PM 30.1047 -95.1644 266° West 294 338 6,700 -1,800 Descending Houston Center
07:24PM 30.1067 -95.2247 272° West 294 338 6,000 -660 Descending Houston Center
07:24PM 30.1061 -95.2681 269° West 282 325 6,000  Level Houston Center
07:25PM 30.1078 -95.3139 272° West 284 327 6,000 -120 Level Houston Center
07:25PM 30.1061 -95.3622 268° West 286 329 5,900 -900 Descending Houston Center
07:26PM 30.1064 -95.4042 270° West 283 326 5,100 -1,740 Descending Houston Center
07:26PM 30.1072 -95.4419 271° West 266 306 4,300 -1,860 Descending Houston Center
07:27PM 30.1072 -95.4894 270° West 272 313 3,200 -1,200 Descending Houston Center
07:27PM 30.0986 -95.5347 258° West 242 278 3,000 -240 Descending Houston Center
07:28PM 30.0792 -95.5417 197° South 244 281 3,000  Level Houston Center
07:28PM 30.0517 -95.5258 154° Southeast 188 216 3,000 -240 Level Houston Center
07:29PM 30.0342 -95.4969 125° Southeast 204 235 2,800 -600 Descending Houston Center
07:29PM 30.0247 -95.4831 128° Southeast 187 215 2,500 -1,140 Descending Houston Center
07:30PM 30.0064 -95.4203 109° East 165 190 1,200 -1,080 Descending Houston Center
07:31PM 30.0081 -95.3972 85° East 166 191 700 -720 Descending Houston Center
07:31PM 30.0069 -95.3792 94° East 116 133 500 -300 Descending Houston Center
07:32PM 30.0061 -95.3533 92° East 146 168 400 -180 Descending Houston Center